createdAt,value
2017-09-09T00:01:19.869Z,99297.28
2017-09-09T00:03:47.527Z,99293.16
2017-09-09T00:06:15.130Z,99292.29
2017-09-09T00:08:42.746Z,99289.19
2017-09-09T00:11:10.371Z,99290.53
2017-09-09T00:13:38.039Z,99295.02
2017-09-09T00:16:05.666Z,99292.48
2017-09-09T00:18:33.283Z,99285.80
2017-09-09T00:21:00.916Z,99282.86
2017-09-09T00:23:28.534Z,99285.56
2017-09-09T00:25:56.179Z,99277.02
2017-09-09T00:28:23.775Z,99274.77
2017-09-09T00:30:51.442Z,99276.87
2017-09-09T00:33:19.054Z,99270.36
2017-09-09T00:35:46.679Z,99270.53
2017-09-09T00:38:14.295Z,99271.80
2017-09-09T00:40:41.929Z,99274.17
2017-09-09T00:43:09.543Z,99271.88
2017-09-09T00:45:37.271Z,99269.89
2017-09-09T00:48:04.871Z,99276.09
2017-09-09T00:50:32.507Z,99271.13
2017-09-09T00:53:00.102Z,99275.05
2017-09-09T00:55:27.738Z,99269.72
2017-09-09T00:57:55.315Z,99270.63
2017-09-09T01:00:22.934Z,99265.39
2017-09-09T01:02:50.530Z,99263.30
2017-09-09T01:05:18.223Z,99258.81
2017-09-09T01:07:45.826Z,99258.98
2017-09-09T01:10:13.438Z,99258.17
2017-09-09T01:12:41.088Z,99250.23
2017-09-09T01:15:08.729Z,99245.95
2017-09-09T01:17:36.322Z,99239.67
2017-09-09T01:20:03.898Z,99241.28
2017-09-09T01:22:31.560Z,99235.24
2017-09-09T01:24:59.139Z,99230.82
2017-09-09T01:27:26.758Z,99221.38
2017-09-09T01:29:54.381Z,99213.91
2017-09-09T01:32:22.035Z,99209.40
2017-09-09T01:34:49.734Z,99210.08
2017-09-09T01:37:17.342Z,99211.83
2017-09-09T01:39:44.987Z,99197.45
2017-09-09T01:42:12.588Z,99187.05
2017-09-09T01:44:40.207Z,99194.08
2017-09-09T01:47:07.857Z,99192.23
2017-09-09T01:49:35.432Z,99188.01
2017-09-09T01:52:03.053Z,99178.36
2017-09-09T01:54:30.651Z,99184.70
2017-09-09T01:56:58.285Z,99183.05
2017-09-09T01:59:25.894Z,99176.73
2017-09-09T02:01:53.642Z,99173.53
2017-09-09T02:04:21.239Z,99169.75
2017-09-09T02:06:48.883Z,99162.23
2017-09-09T02:09:16.466Z,99170.89
2017-09-09T02:11:44.108Z,99163.67
2017-09-09T02:14:11.817Z,99158.11
2017-09-09T02:16:39.450Z,99158.61
2017-09-09T02:19:07.041Z,99152.12
2017-09-09T02:21:34.692Z,99145.74
2017-09-09T02:24:02.472Z,99141.94
2017-09-09T02:26:30.078Z,99136.94
2017-09-09T02:28:57.690Z,99136.30
2017-09-09T02:31:25.494Z,99135.35
2017-09-09T02:33:53.074Z,99136.81
2017-09-09T02:36:20.717Z,99136.54
2017-09-09T02:38:48.386Z,99128.40
2017-09-09T02:41:16.055Z,99128.02
2017-09-09T02:43:43.668Z,99121.97
2017-09-09T02:46:11.270Z,99118.42
2017-09-09T02:48:38.914Z,99112.31
2017-09-09T02:51:06.514Z,99100.17
2017-09-09T02:53:34.169Z,99094.17
2017-09-09T02:56:01.939Z,99088.94
2017-09-09T02:58:29.566Z,99082.53
2017-09-09T03:00:57.162Z,99078.25
2017-09-09T03:03:24.995Z,99083.71
2017-09-09T03:05:52.615Z,99085.34
2017-09-09T03:08:20.311Z,99079.91
2017-09-09T03:10:47.869Z,99075.50
2017-09-09T03:13:15.498Z,99082.23
2017-09-09T03:15:43.086Z,99081.50
2017-09-09T03:18:10.720Z,99076.55
2017-09-09T03:20:38.370Z,99068.76
2017-09-09T03:23:06.047Z,99081.64
2017-09-09T03:25:33.631Z,99075.53
2017-09-09T03:28:01.261Z,99067.36
2017-09-09T03:30:28.853Z,99070.14
2017-09-09T03:32:56.604Z,99065.02
2017-09-09T03:35:24.262Z,99063.97
2017-09-09T03:37:51.864Z,99069.25
2017-09-09T03:40:19.478Z,99065.88
2017-09-09T03:42:47.078Z,99064.38
2017-09-09T03:45:14.722Z,99055.63
2017-09-09T03:47:42.427Z,99051.59
2017-09-09T03:50:10.182Z,99045.86
2017-09-09T03:52:37.786Z,99039.80
2017-09-09T03:55:05.471Z,99045.02
2017-09-09T03:57:33.046Z,99044.99
2017-09-09T04:00:00.674Z,99038.61
2017-09-09T04:02:28.336Z,99043.62
2017-09-09T04:04:55.975Z,99034.23
2017-09-09T04:07:23.555Z,99036.17
2017-09-09T04:09:51.179Z,99040.59
2017-09-09T04:12:18.778Z,99029.55
2017-09-09T04:14:46.407Z,99028.30
2017-09-09T04:17:14.123Z,99026.36
2017-09-09T04:19:41.739Z,99026.50
2017-09-09T04:22:09.383Z,99030.96
2017-09-09T04:24:37.027Z,99032.34
2017-09-09T04:27:04.610Z,99035.44
2017-09-09T04:29:32.236Z,99034.38
2017-09-09T04:31:59.851Z,99033.07
2017-09-09T04:34:27.474Z,99034.27
2017-09-09T04:36:55.066Z,99032.92
2017-09-09T04:39:22.698Z,99032.27
2017-09-09T04:41:50.330Z,99033.78
2017-09-09T04:44:17.973Z,99039.72
2017-09-09T04:46:45.575Z,99053.19
2017-09-09T04:49:13.161Z,99048.91
2017-09-09T04:51:40.860Z,99046.28
2017-09-09T04:54:08.460Z,99042.17
2017-09-09T04:56:36.083Z,99045.36
2017-09-09T04:59:03.724Z,99041.57
2017-09-09T05:01:31.429Z,99037.12
2017-09-09T05:03:59.015Z,99036.80
2017-09-09T05:06:26.626Z,99039.90
2017-09-09T05:08:54.207Z,99048.91
2017-09-09T05:11:21.830Z,99043.80
2017-09-09T05:13:49.415Z,99042.86
2017-09-09T05:16:17.051Z,99043.97
2017-09-09T05:18:44.635Z,99050.27
2017-09-09T05:21:12.270Z,99052.39
2017-09-09T05:23:39.922Z,99057.08
2017-09-09T05:26:07.550Z,99055.06
2017-09-09T05:28:35.258Z,99061.89
2017-09-09T05:31:02.886Z,99063.81
2017-09-09T05:33:30.551Z,99062.05
2017-09-09T05:35:58.169Z,99069.55
2017-09-09T05:38:25.756Z,99060.62
2017-09-09T05:40:53.419Z,99061.02
2017-09-09T05:43:21.011Z,99063.72
2017-09-09T05:45:48.635Z,99066.86
2017-09-09T05:48:16.239Z,99064.91
2017-09-09T05:50:43.856Z,99061.95
2017-09-09T05:53:11.462Z,99056.64
2017-09-09T05:55:39.110Z,99063.14
2017-09-09T05:58:06.735Z,99058.24
2017-09-09T06:00:34.424Z,99057.49
2017-09-09T06:03:02.106Z,99061.05
2017-09-09T06:05:29.743Z,99052.95
2017-09-09T06:07:57.330Z,99055.98
2017-09-09T06:10:24.955Z,99061.30
2017-09-09T06:12:52.538Z,99064.98
2017-09-09T06:15:20.171Z,99064.59
2017-09-09T06:17:47.790Z,99063.08
2017-09-09T06:20:15.387Z,99065.31
2017-09-09T06:22:43.159Z,99078.30
2017-09-09T06:25:10.795Z,99073.73
2017-09-09T06:27:38.406Z,99066.34
2017-09-09T06:30:06.018Z,99071.32
2017-09-09T06:32:33.647Z,99067.11
2017-09-09T06:35:01.260Z,99064.21
2017-09-09T06:37:28.842Z,99069.20
2017-09-09T06:39:56.555Z,99070.69
2017-09-09T06:42:24.146Z,99060.28
2017-09-09T06:44:51.754Z,99056.23
2017-09-09T06:47:19.346Z,99062.60
2017-09-09T06:49:46.978Z,99062.19
2017-09-09T06:52:14.567Z,99066.69
2017-09-09T06:54:42.179Z,99070.87
2017-09-09T06:57:09.780Z,99074.61
2017-09-09T06:59:37.403Z,99075.16
2017-09-09T07:02:05.010Z,99067.25
2017-09-09T07:04:32.655Z,99068.84
2017-09-09T07:07:00.246Z,99071.36
2017-09-09T07:09:27.870Z,99067.78
2017-09-09T07:11:55.459Z,99069.61
2017-09-09T07:14:23.090Z,99074.22
2017-09-09T07:16:50.691Z,99063.45
2017-09-09T07:19:18.306Z,99078.14
2017-09-09T07:21:45.905Z,99078.87
2017-09-09T07:24:13.566Z,99085.04
2017-09-09T07:26:41.191Z,99092.95
2017-09-09T07:29:08.936Z,99086.34
2017-09-09T07:31:36.678Z,99092.86
2017-09-09T07:34:04.361Z,99096.16
2017-09-09T07:36:32.057Z,99103.73
2017-09-09T07:38:59.679Z,99114.68
2017-09-09T07:41:27.331Z,99110.31
2017-09-09T07:43:54.922Z,99116.58
2017-09-09T07:46:22.533Z,99114.41
2017-09-09T07:48:50.267Z,99120.41
2017-09-09T07:51:17.929Z,99115.54
2017-09-09T07:53:45.558Z,99115.85
2017-09-09T07:56:13.234Z,99124.53
2017-09-09T07:58:40.839Z,99128.16
2017-09-09T08:01:08.567Z,99132.05
2017-09-09T08:03:36.191Z,99140.47
2017-09-09T08:06:03.827Z,99142.48
2017-09-09T08:08:31.462Z,99140.30
2017-09-09T08:10:59.067Z,99154.09
2017-09-09T08:13:29.087Z,99156.03
2017-09-09T08:15:56.763Z,99159.39
2017-09-09T08:18:24.470Z,99157.59
2017-09-09T08:20:52.148Z,99171.17
2017-09-09T08:23:19.844Z,99169.89
2017-09-09T08:25:47.463Z,99169.23
2017-09-09T08:28:16.428Z,99171.16
2017-09-09T08:30:45.566Z,99173.55
2017-09-09T08:33:13.227Z,99173.41
2017-09-09T08:35:40.831Z,99174.39
2017-09-09T08:38:08.448Z,99184.98
2017-09-09T08:40:36.054Z,99181.97
2017-09-09T08:43:03.764Z,99184.56
2017-09-09T08:45:31.370Z,99186.16
2017-09-09T08:47:59.015Z,99182.31
2017-09-09T08:50:27.389Z,99191.19
2017-09-09T08:52:55.063Z,99193.19
2017-09-09T08:55:22.735Z,99197.44
2017-09-09T08:57:51.595Z,99201.42
2017-09-09T09:00:19.440Z,99202.44
2017-09-09T09:02:47.124Z,99205.11
2017-09-09T09:05:15.019Z,99211.25
2017-09-09T09:07:42.692Z,99200.98
2017-09-09T09:10:10.473Z,99209.30
2017-09-09T09:12:38.147Z,99210.95
2017-09-09T09:15:05.831Z,99214.97
2017-09-09T09:17:33.586Z,99226.16
2017-09-09T09:20:01.251Z,99227.52
2017-09-09T09:22:29.478Z,99230.92
2017-09-09T09:24:57.850Z,99234.55
2017-09-09T09:27:25.567Z,99244.27
2017-09-09T09:29:53.226Z,99248.63
2017-09-09T09:32:20.901Z,99241.99
2017-09-09T09:34:50.235Z,99248.05
2017-09-09T09:37:17.884Z,99249.14
2017-09-09T09:39:45.592Z,99256.66
2017-09-09T09:42:13.224Z,99255.06
2017-09-09T09:44:40.862Z,99254.64
2017-09-09T09:47:08.608Z,99249.38
2017-09-09T09:49:36.394Z,99255.16
2017-09-09T09:52:05.054Z,99252.81
2017-09-09T09:54:32.695Z,99256.17
2017-09-09T09:57:00.333Z,99264.48
2017-09-09T09:59:27.995Z,99259.28
2017-09-09T10:01:55.833Z,99263.82
2017-09-09T10:04:23.455Z,99263.30
2017-09-09T10:06:51.077Z,99264.92
2017-09-09T10:09:18.710Z,99268.63
2017-09-09T10:11:46.311Z,99270.31
2017-09-09T10:14:13.943Z,99282.06
2017-09-09T10:16:41.534Z,99282.22
2017-09-09T10:19:09.258Z,99276.14
2017-09-09T10:21:36.866Z,99286.02
2017-09-09T10:24:07.087Z,99288.30
2017-09-09T10:26:34.698Z,99293.81
2017-09-09T10:29:02.354Z,99297.48
2017-09-09T10:31:29.970Z,99293.14
2017-09-09T10:33:57.631Z,99287.44
2017-09-09T10:36:25.245Z,99288.80
2017-09-09T10:38:52.940Z,99280.11
2017-09-09T10:41:20.565Z,99279.69
2017-09-09T10:43:48.187Z,99270.05
2017-09-09T10:46:15.778Z,99271.52
2017-09-09T10:48:43.433Z,99273.28
2017-09-09T10:51:11.047Z,99278.38
2017-09-09T10:53:38.671Z,99268.38
2017-09-09T10:56:06.280Z,99276.48
2017-09-09T10:58:33.999Z,99281.87
2017-09-09T11:01:02.408Z,99275.38
2017-09-09T11:03:30.061Z,99285.77
2017-09-09T11:05:57.688Z,99285.02
2017-09-09T11:08:25.331Z,99286.28
2017-09-09T11:10:52.950Z,99275.59
2017-09-09T11:13:20.572Z,99282.13
2017-09-09T11:15:48.176Z,99276.36
2017-09-09T11:18:15.803Z,99278.75
2017-09-09T11:20:43.415Z,99280.61
2017-09-09T11:23:11.038Z,99278.81
2017-09-09T11:25:38.750Z,99280.17
2017-09-09T11:28:06.384Z,99285.48
2017-09-09T11:30:33.974Z,99283.37
2017-09-09T11:33:01.645Z,99286.77
2017-09-09T11:35:29.226Z,99282.83
2017-09-09T11:37:56.877Z,99295.91
2017-09-09T11:40:25.342Z,99281.27
2017-09-09T11:42:52.980Z,99282.56
2017-09-09T11:45:20.554Z,99283.41
2017-09-09T11:47:48.246Z,99286.59
2017-09-09T11:50:15.850Z,99284.09
2017-09-09T11:52:43.438Z,99276.64
2017-09-09T11:55:11.078Z,99279.45
2017-09-09T11:57:38.671Z,99283.75
2017-09-09T12:00:06.319Z,99275.42
2017-09-09T12:02:33.975Z,99291.87
2017-09-09T12:05:01.611Z,99301.03
2017-09-09T12:07:29.218Z,99315.11
2017-09-09T12:09:56.867Z,99315.33
2017-09-09T12:12:24.466Z,99311.91
2017-09-09T12:14:52.095Z,99327.23
2017-09-09T12:17:19.685Z,99338.96
2017-09-09T12:19:47.294Z,99346.58
2017-09-09T12:22:14.886Z,99345.89
2017-09-09T12:24:42.522Z,99349.75
2017-09-09T12:27:10.120Z,99348.39
2017-09-09T12:29:37.775Z,99349.42
2017-09-09T12:32:05.378Z,99342.69
2017-09-09T12:34:33.036Z,99342.92
2017-09-09T12:37:00.630Z,99351.34
2017-09-09T12:39:28.263Z,99352.34
2017-09-09T12:41:55.874Z,99348.30
2017-09-09T12:44:23.504Z,99342.42
2017-09-09T12:46:51.102Z,99327.02
2017-09-09T12:49:18.731Z,99327.65
2017-09-09T12:51:46.331Z,99329.27
2017-09-09T12:54:13.963Z,99331.86
2017-09-09T12:56:41.573Z,99331.66
2017-09-09T12:59:09.214Z,99342.84
2017-09-09T13:01:36.819Z,99349.33
2017-09-09T13:04:04.451Z,99353.13
2017-09-09T13:06:33.726Z,99354.95
2017-09-09T13:09:01.372Z,99353.96
2017-09-09T13:11:28.991Z,99354.90
2017-09-09T13:13:56.609Z,99349.65
2017-09-09T13:16:24.216Z,99352.33
2017-09-09T13:18:51.834Z,99347.92
2017-09-09T13:21:19.439Z,99347.56
2017-09-09T13:23:47.083Z,99345.98
2017-09-09T13:26:14.688Z,99339.12
2017-09-09T13:28:42.311Z,99343.48
2017-09-09T13:31:09.907Z,99345.77
2017-09-09T13:33:37.540Z,99349.27
2017-09-09T13:36:05.140Z,99350.43
2017-09-09T13:38:32.767Z,99365.97
2017-09-09T13:41:00.349Z,99366.06
2017-09-09T13:43:27.998Z,99372.94
2017-09-09T13:45:55.606Z,99376.59
2017-09-09T13:48:23.213Z,99368.58
2017-09-09T13:50:50.830Z,99365.35
2017-09-09T13:53:18.428Z,99361.46
2017-09-09T13:55:46.073Z,99366.98
2017-09-09T13:58:13.658Z,99367.56
2017-09-09T14:00:41.305Z,99358.48
2017-09-09T14:03:08.899Z,99357.24
2017-09-09T14:05:36.535Z,99355.05
2017-09-09T14:08:04.154Z,99349.75
2017-09-09T14:10:31.817Z,99339.15
2017-09-09T14:12:59.424Z,99341.20
2017-09-09T14:15:27.164Z,99335.23
2017-09-09T14:17:54.758Z,99337.45
2017-09-09T14:20:22.444Z,99344.23
2017-09-09T14:22:50.023Z,99345.76
2017-09-09T14:25:17.634Z,99345.81
2017-09-09T14:27:45.234Z,99346.61
2017-09-09T14:30:12.859Z,99352.52
2017-09-09T14:32:40.501Z,99365.27
2017-09-09T14:35:08.095Z,99366.56
2017-09-09T14:37:35.723Z,99363.33
2017-09-09T14:40:03.347Z,99359.20
2017-09-09T14:42:30.974Z,99362.23
2017-09-09T14:44:58.693Z,99367.80
2017-09-09T14:47:26.319Z,99366.89
2017-09-09T14:49:53.926Z,99363.72
2017-09-09T14:52:21.537Z,99368.87
2017-09-09T14:54:49.140Z,99373.67
2017-09-09T14:57:16.814Z,99369.60
2017-09-09T14:59:44.583Z,99375.22
2017-09-09T15:02:12.200Z,99372.38
2017-09-09T15:04:41.131Z,99368.66
2017-09-09T15:07:08.739Z,99366.52
2017-09-09T15:09:36.334Z,99361.99
2017-09-09T15:12:03.955Z,99360.86
2017-09-09T15:14:31.746Z,99365.17
2017-09-09T15:16:59.390Z,99359.61
2017-09-09T15:19:27.289Z,99367.38
2017-09-09T15:21:54.980Z,99370.20
2017-09-09T15:24:22.583Z,99372.16
2017-09-09T15:26:50.316Z,99380.34
2017-09-09T15:29:17.956Z,99384.40
2017-09-09T15:31:45.590Z,99389.80
2017-09-09T15:34:13.208Z,99389.39
2017-09-09T15:36:40.846Z,99395.81
2017-09-09T15:39:09.120Z,99391.47
2017-09-09T15:41:36.757Z,99391.56
2017-09-09T15:44:04.468Z,99392.81
2017-09-09T15:46:32.152Z,99395.67
2017-09-09T15:48:59.791Z,99397.83
2017-09-09T15:51:27.457Z,99402.83
2017-09-09T15:53:55.109Z,99398.98
2017-09-09T15:56:22.795Z,99405.27
2017-09-09T15:58:50.443Z,99404.36
2017-09-09T16:01:18.100Z,99408.91
2017-09-09T16:03:45.786Z,99417.88
2017-09-09T16:06:13.508Z,99417.48
2017-09-09T16:08:41.163Z,99418.81
2017-09-09T16:11:08.805Z,99421.52
2017-09-09T16:13:36.413Z,99432.79
2017-09-09T16:16:04.050Z,99431.38
2017-09-09T16:18:32.071Z,99433.34
2017-09-09T16:20:59.720Z,99436.39
2017-09-09T16:23:27.835Z,99439.27
2017-09-09T16:25:55.593Z,99433.42
2017-09-09T16:28:23.242Z,99441.38
2017-09-09T16:30:51.174Z,99441.20
2017-09-09T16:33:18.792Z,99444.44
2017-09-09T16:35:46.456Z,99445.92
2017-09-09T16:38:14.072Z,99447.52
2017-09-09T16:40:41.788Z,99446.44
2017-09-09T16:43:09.442Z,99450.70
2017-09-09T16:45:37.143Z,99450.10
2017-09-09T16:48:04.803Z,99451.80
2017-09-09T16:50:32.467Z,99452.37
2017-09-09T16:53:00.137Z,99453.42
2017-09-09T16:55:27.764Z,99454.84
2017-09-09T16:57:55.404Z,99458.10
2017-09-09T17:00:23.028Z,99458.03
2017-09-09T17:02:50.692Z,99464.77
2017-09-09T17:05:18.328Z,99465.05
2017-09-09T17:07:46.059Z,99460.63
2017-09-09T17:10:13.692Z,99456.56
2017-09-09T17:12:41.349Z,99459.44
2017-09-09T17:15:09.018Z,99462.72
2017-09-09T17:17:36.650Z,99466.23
2017-09-09T17:20:04.296Z,99476.52
2017-09-09T17:22:31.932Z,99475.51
2017-09-09T17:25:02.082Z,99484.91
2017-09-09T17:27:30.304Z,99482.98
2017-09-09T17:29:57.947Z,99482.45
2017-09-09T17:32:25.622Z,99483.97
2017-09-09T17:34:53.288Z,99479.03
2017-09-09T17:37:20.969Z,99497.02
2017-09-09T17:39:48.603Z,99489.12
2017-09-09T17:42:16.215Z,99504.34
2017-09-09T17:44:43.909Z,99504.03
2017-09-09T17:47:11.552Z,99508.94
2017-09-09T17:49:39.214Z,99506.75
2017-09-09T17:52:07.576Z,99509.20
2017-09-09T17:54:35.244Z,99507.34
2017-09-09T17:57:02.849Z,99512.90
2017-09-09T17:59:30.497Z,99516.89
2017-09-09T18:01:59.020Z,99515.27
2017-09-09T18:04:26.731Z,99520.73
2017-09-09T18:06:54.351Z,99518.73
2017-09-09T18:09:22.376Z,99524.45
2017-09-09T18:11:50.005Z,99529.42
2017-09-09T18:14:17.658Z,99534.57
2017-09-09T18:16:45.387Z,99529.48
2017-09-09T18:19:13.058Z,99530.64
2017-09-09T18:21:40.692Z,99530.23
2017-09-09T18:24:08.326Z,99532.27
2017-09-09T18:26:35.969Z,99540.31
2017-09-09T18:29:03.596Z,99535.69
2017-09-09T18:31:31.264Z,99543.84
2017-09-09T18:33:58.905Z,99541.72
2017-09-09T18:36:26.537Z,99555.08
2017-09-09T18:38:54.147Z,99556.20
2017-09-09T18:41:21.883Z,99562.67
2017-09-09T18:43:49.511Z,99563.78
2017-09-09T18:46:17.297Z,99560.02
2017-09-09T18:48:44.919Z,99567.43
2017-09-09T18:51:12.578Z,99574.33
2017-09-09T18:53:40.212Z,99581.09
2017-09-09T18:56:07.868Z,99588.95
2017-09-09T18:58:35.558Z,99584.85
2017-09-09T19:01:03.192Z,99595.50
2017-09-09T19:03:30.781Z,99600.86
2017-09-09T19:05:58.448Z,99601.68
2017-09-09T19:08:26.080Z,99602.72
2017-09-09T19:10:53.716Z,99602.34
2017-09-09T19:13:21.325Z,99603.13
2017-09-09T19:15:48.993Z,99609.58
2017-09-09T19:18:16.616Z,99603.45
2017-09-09T19:20:44.292Z,99597.52
2017-09-09T19:23:12.452Z,99605.34
2017-09-09T19:25:40.155Z,99615.59
2017-09-09T19:28:07.843Z,99613.14
2017-09-09T19:30:35.500Z,99616.14
2017-09-09T19:33:03.144Z,99616.84
2017-09-09T19:35:30.781Z,99614.58
2017-09-09T19:37:58.409Z,99607.02
2017-09-09T19:40:26.076Z,99605.58
2017-09-09T19:42:53.726Z,99615.36
2017-09-09T19:45:21.382Z,99610.36
2017-09-09T19:47:48.994Z,99611.15
2017-09-09T19:50:16.665Z,99620.44
2017-09-09T19:52:44.379Z,99610.36
2017-09-09T19:55:12.044Z,99618.88
2017-09-09T19:57:39.644Z,99631.94
2017-09-09T20:00:07.306Z,99636.74
2017-09-09T20:02:34.994Z,99634.13
2017-09-09T20:05:02.611Z,99633.09
2017-09-09T20:07:30.272Z,99630.47
2017-09-09T20:09:57.880Z,99628.70
2017-09-09T20:12:25.516Z,99627.97
2017-09-09T20:14:53.118Z,99625.55
2017-09-09T20:17:20.755Z,99625.08
2017-09-09T20:19:48.363Z,99632.06
2017-09-09T20:22:15.974Z,99632.58
2017-09-09T20:24:43.558Z,99631.41
2017-09-09T20:27:11.206Z,99633.66
2017-09-09T20:29:38.826Z,99644.70
2017-09-09T20:32:06.454Z,99643.71
2017-09-09T20:34:34.069Z,99647.45
2017-09-09T20:37:01.751Z,99654.70
2017-09-09T20:39:29.369Z,99658.00
2017-09-09T20:41:57.026Z,99654.77
2017-09-09T20:44:24.624Z,99663.64
2017-09-09T20:46:52.248Z,99664.05
2017-09-09T20:49:19.845Z,99670.23
2017-09-09T20:51:47.487Z,99666.97
2017-09-09T20:54:15.083Z,99673.34
2017-09-09T20:56:42.767Z,99681.36
2017-09-09T20:59:10.354Z,99686.59
2017-09-09T21:01:37.943Z,99695.80
2017-09-09T21:04:05.580Z,99690.08
2017-09-09T21:06:33.210Z,99689.05
2017-09-09T21:09:00.910Z,99695.71
2017-09-09T21:11:28.506Z,99691.75
2017-09-09T21:13:56.136Z,99687.69
2017-09-09T21:16:23.758Z,99698.44
2017-09-09T21:18:51.414Z,99700.02
2017-09-09T21:21:19.129Z,99702.80
2017-09-09T21:23:46.786Z,99706.69
2017-09-09T21:26:14.410Z,99704.84
2017-09-09T21:28:42.050Z,99700.27
2017-09-09T21:31:09.666Z,99708.75
2017-09-09T21:33:37.296Z,99707.09
2017-09-09T21:36:04.896Z,99709.78
2017-09-09T21:38:32.543Z,99713.91
2017-09-09T21:41:00.159Z,99710.97
2017-09-09T21:43:27.798Z,99716.14
2017-09-09T21:45:55.416Z,99717.14
2017-09-09T21:48:23.075Z,99721.20
2017-09-09T21:50:50.696Z,99720.47
2017-09-09T21:53:18.296Z,99714.58
2017-09-09T21:55:45.988Z,99722.42
2017-09-09T21:58:13.610Z,99719.63
2017-09-09T22:00:41.231Z,99729.93
2017-09-09T22:03:08.835Z,99724.40
2017-09-09T22:05:36.459Z,99727.52
2017-09-09T22:08:04.079Z,99729.09
2017-09-09T22:10:31.728Z,99732.99
2017-09-09T22:12:59.354Z,99734.87
2017-09-09T22:15:26.983Z,99727.01
2017-09-09T22:17:54.604Z,99725.17
2017-09-09T22:20:22.248Z,99726.43
2017-09-09T22:22:50.053Z,99726.18
2017-09-09T22:25:17.723Z,99734.09
2017-09-09T22:27:45.397Z,99737.07
2017-09-09T22:30:13.104Z,99737.52
2017-09-09T22:32:40.728Z,99732.98
2017-09-09T22:35:08.355Z,99743.84
2017-09-09T22:37:35.954Z,99741.17
2017-09-09T22:40:03.579Z,99747.08
2017-09-09T22:42:31.180Z,99746.64
2017-09-09T22:44:58.810Z,99751.91
2017-09-09T22:47:26.396Z,99750.07
2017-09-09T22:49:54.055Z,99749.95
2017-09-09T22:52:21.664Z,99741.50
2017-09-09T22:54:49.295Z,99741.06
2017-09-09T22:57:16.892Z,99743.63
2017-09-09T22:59:44.537Z,99743.56
2017-09-09T23:02:12.145Z,99740.81
2017-09-09T23:04:39.759Z,99746.77
2017-09-09T23:07:07.367Z,99744.72
2017-09-09T23:09:34.982Z,99741.34
2017-09-09T23:12:02.610Z,99743.53
2017-09-09T23:14:30.248Z,99740.55
2017-09-09T23:16:57.846Z,99743.06
2017-09-09T23:19:25.502Z,99741.55
2017-09-09T23:21:53.119Z,99738.97
2017-09-09T23:24:20.720Z,99742.59
2017-09-09T23:26:48.352Z,99745.66
2017-09-09T23:29:15.990Z,99738.24
2017-09-09T23:31:43.586Z,99728.77
2017-09-09T23:34:11.275Z,99738.48
2017-09-09T23:36:38.896Z,99735.35
2017-09-09T23:39:06.510Z,99736.02
2017-09-09T23:41:34.131Z,99738.80
2017-09-09T23:44:01.782Z,99742.91
2017-09-09T23:46:29.418Z,99742.69
2017-09-09T23:48:57.035Z,99750.17
2017-09-09T23:51:24.635Z,99748.00
2017-09-09T23:53:52.263Z,99747.59
2017-09-09T23:56:19.866Z,99753.56
2017-09-09T23:58:47.499Z,99748.41
